Hunker, Pennsylvania
Current Conditions -  °F | °C
As of 8:50 PM on Friday 31 Oct 2014 (Local Time) from KLBE Reporting Station
Light Rain Light Rain  
Wind Chill: 41°   Ceiling: 500
Heat Index: 41°   Visibility: 5mi
Dew Point: 41°   Wind: 0mph
Humidity: 100%   Direction: NA
Pressure: 29.89"   Gusts: NA
Location:  40.2°N, 79.62°W
Report Text: KLBE 010050Z 00000KT 5SM -RA BR BKN005 OVC013 05/05 A2989
Loading
Personal Weather Stations






























Interactive Weather Map
Tropical Storm Tracking
New forecast layout! Learn more

10-Day Weather Forecast

Advertisements
Track Severe Weather on mobile